Time;durP1;ratioP1;P1;durP2;ratioP2;P2;SDS_P1;SDS_P2;PMS_P1;PMS_P2;Temp;Humidity;BMP_temperature;BMP_pressure;BME280_temperature;BME280_humidity;BME280_pressure;Samples;Min_cycle;Max_cycle;Signal;HPM_P1;HPM_P2
2024/03/02 00:00:54;;;;;;;47.42;37.40;;;11.60;99.90;;;;;;5062807;28;20346;-79
2024/03/02 00:03:21;;;;;;;52.13;40.97;;;11.60;99.90;;;;;;5075821;28;20685;-79
2024/03/02 00:05:52;;;;;;;50.50;39.78;;;11.60;99.90;;;;;;5079869;28;20212;-76
2024/03/02 00:08:26;;;;;;;52.95;40.20;;;11.60;99.90;;;;;;5090141;28;20223;-78
2024/03/02 00:10:58;;;;;;;48.70;39.50;;;11.60;99.90;;;;;;5095267;27;20243;-79
2024/03/02 00:13:25;;;;;;;48.13;39.80;;;11.70;99.90;;;;;;5111644;28;20226;-79
2024/03/02 00:15:55;;;;;;;48.58;39.05;;;11.70;99.90;;;;;;5092789;28;20219;-80
2024/03/02 00:18:26;;;;;;;45.20;37.08;;;11.60;99.90;;;;;;5091557;28;20227;-79
2024/03/02 00:20:56;;;;;;;42.90;36.10;;;11.70;99.90;;;;;;5092652;28;20677;-79
2024/03/02 00:23:24;;;;;;;51.28;40.20;;;11.70;99.90;;;;;;5092969;28;20234;-79
2024/03/02 00:25:53;;;;;;;53.72;41.58;;;11.70;99.90;;;;;;5093487;28;20566;-79
2024/03/02 00:28:22;;;;;;;53.20;40.53;;;11.70;99.90;;;;;;5092569;28;20310;-78
2024/03/02 00:31:01;;;;;;;51.35;38.90;;;11.60;99.90;;;;;;5093543;28;20225;-78
2024/03/02 00:33:31;;;;;;;50.75;39.47;;;11.60;99.90;;;;;;5092714;28;20237;-78
2024/03/02 00:35:59;;;;;;;43.03;36.47;;;11.60;99.90;;;;;;5093261;28;20672;-79
2024/03/02 00:38:27;;;;;;;48.00;36.28;;;11.60;99.90;;;;;;5092763;28;20251;-78
2024/03/02 00:40:57;;;;;;;51.80;42.15;;;11.70;99.90;;;;;;5078742;28;20587;-78
2024/03/02 00:43:43;;;;;;;50.53;41.55;;;11.70;99.90;;;;;;5061733;28;20689;-78
2024/03/02 00:46:13;;;;;;;50.55;40.55;;;11.70;99.90;;;;;;5073337;28;20288;-78
2024/03/02 00:48:46;;;;;;;49.53;40.50;;;11.70;99.90;;;;;;5072091;28;20223;-78
2024/03/02 00:51:13;;;;;;;45.78;38.28;;;11.70;99.90;;;;;;5073444;28;20227;-76
2024/03/02 00:53:40;;;;;;;46.78;38.80;;;11.70;99.90;;;;;;5070526;28;20219;-78
2024/03/02 00:56:11;;;;;;;47.55;38.53;;;11.70;99.90;;;;;;5072485;28;20228;-78
2024/03/02 00:58:39;;;;;;;46.70;38.80;;;11.70;99.90;;;;;;5072509;28;20235;-78
2024/03/02 01:01:11;;;;;;;51.97;40.28;;;11.70;99.90;;;;;;5072834;28;20227;-78
2024/03/02 01:03:41;;;;;;;52.80;39.30;;;11.70;99.90;;;;;;5072114;28;20224;-78
2024/03/02 01:06:08;;;;;;;49.08;39.30;;;11.70;99.90;;;;;;5073325;28;20302;-76
2024/03/02 01:08:42;;;;;;;51.58;38.67;;;11.70;99.90;;;;;;5092177;28;20223;-77
2024/03/02 01:11:09;;;;;;;53.22;40.42;;;11.70;99.90;;;;;;5088037;28;20218;-77
2024/03/02 01:13:36;;;;;;;52.97;39.30;;;11.70;99.90;;;;;;5092304;28;20224;-77
2024/03/02 01:16:04;;;;;;;56.88;42.45;;;11.70;99.90;;;;;;5092619;28;20887;-77
2024/03/02 01:18:31;;;;;;;51.20;40.95;;;11.80;99.90;;;;;;5092598;28;20302;-77
2024/03/02 01:21:00;;;;;;;52.10;41.78;;;11.80;99.90;;;;;;5092726;28;20223;-79
2024/03/02 01:23:47;;;;;;;60.47;48.22;;;11.80;99.90;;;;;;5088992;28;20223;-79
2024/03/02 01:26:21;;;;;;;63.75;52.58;;;11.80;99.90;;;;;;5096014;28;20246;-77
2024/03/02 01:28:48;;;;;;;58.08;48.22;;;11.80;99.90;;;;;;5075802;28;20220;-77
2024/03/02 01:31:15;;;;;;;55.20;49.28;;;11.80;99.90;;;;;;5084985;28;20677;-77
2024/03/02 01:33:42;;;;;;;60.78;49.20;;;11.80;99.90;;;;;;5087486;28;20566;-77
2024/03/02 01:36:11;;;;;;;58.35;47.67;;;11.80;99.90;;;;;;5089324;28;20219;-78
2024/03/02 01:38:38;;;;;;;70.47;51.63;;;11.80;99.90;;;;;;5086509;28;20230;-78
2024/03/02 01:41:05;;;;;;;57.20;47.40;;;11.80;99.90;;;;;;5081149;28;20231;-77
2024/03/02 01:43:32;;;;;;;65.97;51.83;;;11.80;99.90;;;;;;5073159;28;20230;-77
2024/03/02 01:45:59;;;;;;;57.67;49.13;;;11.80;99.90;;;;;;5070981;28;20225;-78
2024/03/02 01:48:28;;;;;;;63.70;52.10;;;11.80;99.90;;;;;;5055614;28;20513;-78
2024/03/02 01:51:08;;;;;;;58.28;49.78;;;11.80;99.90;;;;;;5055226;28;20252;-77
2024/03/02 01:53:37;;;;;;;55.15;44.17;;;11.80;99.90;;;;;;5056103;28;20220;-77
2024/03/02 01:56:04;;;;;;;62.42;49.15;;;11.80;99.90;;;;;;5056345;28;20225;-77
2024/03/02 01:58:31;;;;;;;60.15;47.67;;;11.80;99.90;;;;;;5055809;28;20239;-77
2024/03/02 02:00:58;;;;;;;56.97;46.55;;;11.90;99.90;;;;;;5056428;28;20216;-77
2024/03/02 02:03:25;;;;;;;56.47;47.88;;;11.90;99.90;;;;;;5055259;28;20671;-78
2024/03/02 02:05:52;;;;;;;63.42;52.65;;;11.90;99.90;;;;;;5072278;28;20315;-77
2024/03/02 02:08:19;;;;;;;67.40;55.05;;;11.90;99.90;;;;;;5069366;28;20235;-77
2024/03/02 02:10:48;;;;;;;69.18;54.75;;;12.00;99.90;;;;;;5073524;28;20224;-77
2024/03/02 02:13:15;;;;;;;70.28;57.38;;;12.00;99.90;;;;;;5093093;28;20228;-77
2024/03/02 02:15:42;;;;;;;60.35;49.72;;;12.00;99.90;;;;;;5086729;28;20220;-77
2024/03/02 02:18:09;;;;;;;63.33;52.40;;;12.00;99.90;;;;;;5096516;28;20300;-77
2024/03/02 02:20:36;;;;;;;60.30;51.90;;;12.00;99.90;;;;;;5095967;28;20223;-76
2024/03/02 02:23:07;;;;;;;61.15;51.92;;;12.10;99.90;;;;;;5095359;28;20228;-77
2024/03/02 02:25:35;;;;;;;63.83;50.88;;;12.10;99.90;;;;;;5072148;28;20235;-77
2024/03/02 02:28:05;;;;;;;66.07;54.38;;;12.10;99.90;;;;;;5075429;28;20200;-77
2024/03/02 02:30:34;;;;;;;58.83;49.15;;;12.20;99.90;;;;;;5075950;28;20223;-77
2024/03/02 02:33:01;;;;;;;66.75;50.65;;;12.20;99.90;;;;;;5074465;28;20235;-77
2024/03/02 02:35:29;;;;;;;54.75;46.72;;;12.20;99.90;;;;;;5075446;28;20295;-77
2024/03/02 02:37:58;;;;;;;53.45;45.40;;;12.20;99.90;;;;;;5075282;28;20220;-76
2024/03/02 02:40:26;;;;;;;55.03;46.55;;;12.20;99.90;;;;;;5090526;28;20623;-77
2024/03/02 02:42:54;;;;;;;53.78;44.72;;;12.20;99.90;;;;;;5048798;28;20220;-77
2024/03/02 02:45:21;;;;;;;53.42;46.15;;;12.30;99.90;;;;;;5057199;28;20235;-77
2024/03/02 02:47:48;;;;;;;56.40;44.42;;;12.30;99.90;;;;;;5066313;28;20729;-77
2024/03/02 02:50:15;;;;;;;53.92;42.78;;;12.30;99.90;;;;;;5072857;28;20215;-77
2024/03/02 02:52:43;;;;;;;49.75;44.30;;;12.30;99.90;;;;;;5091724;28;20224;-76
2024/03/02 02:55:11;;;;;;;48.03;40.67;;;12.40;99.90;;;;;;5083794;28;20687;-76
2024/03/02 02:57:41;;;;;;;46.08;40.90;;;12.40;99.90;;;;;;5091265;28;20666;-76
2024/03/02 03:00:13;;;;;;;48.92;40.03;;;12.40;99.90;;;;;;5093318;28;20251;-76
2024/03/02 03:02:44;;;;;;;52.13;42.70;;;12.40;99.90;;;;;;5094329;28;20223;-76
2024/03/02 03:05:12;;;;;;;51.30;40.90;;;12.40;99.90;;;;;;5078875;28;20303;-76
2024/03/02 03:07:50;;;;;;;52.33;42.28;;;12.50;99.90;;;;;;5085872;28;20215;-76
2024/03/02 03:10:18;;;;;;;49.38;42.22;;;12.40;99.90;;;;;;5094071;28;20302;-78
2024/03/02 03:12:49;;;;;;;48.67;39.15;;;12.40;99.90;;;;;;5094951;28;20263;-79
2024/03/02 03:15:16;;;;;;;53.35;40.35;;;12.50;99.90;;;;;;5090781;28;21201;-76
2024/03/02 03:17:43;;;;;;;49.88;40.90;;;12.50;99.90;;;;;;5093779;28;20215;-78
2024/03/02 03:20:10;;;;;;;53.08;41.00;;;12.50;99.90;;;;;;5093450;28;20253;-79
2024/03/02 03:22:38;;;;;;;45.15;37.85;;;12.50;99.90;;;;;;5094872;28;20234;-76
2024/03/02 03:25:07;;;;;;;47.13;38.08;;;12.50;99.90;;;;;;5093700;28;20588;-77
2024/03/02 03:27:35;;;;;;;49.15;39.95;;;12.50;99.90;;;;;;5080533;28;20238;-76
2024/03/02 03:30:03;;;;;;;48.95;40.00;;;12.50;99.90;;;;;;5075943;28;20892;-76
2024/03/02 03:32:30;;;;;;;44.28;38.83;;;12.50;99.90;;;;;;5073938;28;20243;-76
2024/03/02 03:34:57;;;;;;;52.58;40.85;;;12.50;99.90;;;;;;5070849;28;20740;-77
2024/03/02 03:37:26;;;;;;;45.90;39.55;;;12.40;99.90;;;;;;5073105;28;20220;-76
2024/03/02 03:39:55;;;;;;;46.47;39.35;;;12.40;99.90;;;;;;5074583;28;20244;-76
2024/03/02 03:42:22;;;;;;;45.65;37.75;;;12.40;99.90;;;;;;5073912;28;20224;-76
2024/03/02 03:44:49;;;;;;;46.22;38.42;;;12.40;99.90;;;;;;5074073;28;20220;-76
2024/03/02 03:47:20;;;;;;;46.15;40.25;;;12.40;99.90;;;;;;5073234;28;20250;-76
2024/03/02 03:49:47;;;;;;;48.03;39.95;;;12.50;99.90;;;;;;5074402;28;20220;-76
2024/03/02 03:52:14;;;;;;;45.28;38.38;;;12.40;99.90;;;;;;5073928;28;20235;-76
2024/03/02 03:54:42;;;;;;;44.63;39.20;;;12.50;99.90;;;;;;5074423;28;20584;-76
2024/03/02 03:57:09;;;;;;;40.30;35.45;;;12.50;99.90;;;;;;5073602;28;20620;-76
2024/03/02 03:59:37;;;;;;;46.75;40.30;;;12.50;99.90;;;;;;5074462;28;20247;-76
2024/03/02 04:02:04;;;;;;;45.45;38.92;;;12.50;99.90;;;;;;5073403;28;20613;-77
2024/03/02 04:04:33;;;;;;;42.40;35.38;;;12.50;99.90;;;;;;5074149;28;20219;-77
2024/03/02 04:07:00;;;;;;;46.13;38.20;;;12.60;99.90;;;;;;5073691;28;20303;-76
2024/03/02 04:09:27;;;;;;;42.33;34.85;;;12.60;99.90;;;;;;5073464;28;20219;-77
2024/03/02 04:11:54;;;;;;;42.45;35.67;;;12.60;99.90;;;;;;5074043;28;20669;-76
2024/03/02 04:14:21;;;;;;;45.83;36.60;;;12.60;99.90;;;;;;5073526;28;20246;-77
2024/03/02 04:16:48;;;;;;;44.67;37.67;;;12.60;99.90;;;;;;5074710;28;20220;-77
2024/03/02 04:19:17;;;;;;;45.15;37.10;;;12.60;99.90;;;;;;5073660;28;20235;-77
2024/03/02 04:21:45;;;;;;;40.63;35.45;;;12.60;99.90;;;;;;5073953;28;20220;-76
2024/03/02 04:24:12;;;;;;;41.75;32.38;;;12.60;99.90;;;;;;5073098;28;20311;-78
2024/03/02 04:26:39;;;;;;;45.15;35.65;;;12.60;99.90;;;;;;5073887;28;20708;-76
2024/03/02 04:29:06;;;;;;;43.28;36.15;;;12.60;99.90;;;;;;5073133;28;20231;-76
2024/03/02 04:31:33;;;;;;;38.97;34.78;;;12.60;99.90;;;;;;5073392;28;20261;-76
2024/03/02 04:34:02;;;;;;;46.20;36.28;;;12.60;99.90;;;;;;5073398;28;20242;-76
2024/03/02 04:36:29;;;;;;;41.95;35.28;;;12.60;99.90;;;;;;5072847;28;20219;-78
2024/03/02 04:38:58;;;;;;;44.92;34.67;;;12.60;99.90;;;;;;5073539;28;20226;-76
2024/03/02 04:41:26;;;;;;;35.95;31.25;;;12.60;99.90;;;;;;5060029;28;20700;-76
2024/03/02 04:43:53;;;;;;;39.58;33.85;;;12.60;99.90;;;;;;5073093;28;20278;-78
2024/03/02 04:46:20;;;;;;;39.75;32.13;;;12.60;99.90;;;;;;5072914;28;20235;-78
2024/03/02 04:48:48;;;;;;;40.13;33.88;;;12.60;99.90;;;;;;5073360;28;20236;-78
2024/03/02 04:51:15;;;;;;;42.85;34.60;;;12.60;99.90;;;;;;5073069;28;20228;-78
2024/03/02 04:53:42;;;;;;;35.10;30.65;;;12.60;99.90;;;;;;5073159;28;20238;-79
2024/03/02 04:58:51;;;;;;;42.13;35.50;;;12.60;99.90;;;;;;5041544;28;20295;-79
2024/03/02 05:01:18;;;;;;;35.83;31.38;;;12.60;99.90;;;;;;5053002;28;20216;-80
2024/03/02 05:03:45;;;;;;;39.72;33.97;;;12.70;99.90;;;;;;5053198;28;20282;-80
2024/03/02 05:06:15;;;;;;;36.70;32.47;;;12.70;99.90;;;;;;5052793;28;20221;-79
2024/03/02 05:08:42;;;;;;;36.53;31.42;;;12.70;99.90;;;;;;5052748;28;20244;-80
2024/03/02 05:13:54;;;;;;;35.50;30.30;;;12.70;99.90;;;;;;5038316;28;20227;-79
2024/03/02 05:16:20;;;;;;;36.60;32.53;;;12.70;99.90;;;;;;5072580;28;20216;-79
2024/03/02 05:18:47;;;;;;;40.20;31.45;;;12.80;99.90;;;;;;5073055;28;20227;-79
2024/03/02 05:21:14;;;;;;;36.33;31.27;;;12.80;99.90;;;;;;5072857;28;20232;-79
2024/03/02 05:23:41;;;;;;;35.60;30.80;;;12.80;99.90;;;;;;5073156;28;20220;-79
2024/03/02 05:26:12;;;;;;;35.47;31.70;;;12.80;99.90;;;;;;5072044;28;20470;-79
2024/03/02 05:28:39;;;;;;;35.95;29.73;;;12.80;99.90;;;;;;5073165;28;20805;-79
2024/03/02 05:31:11;;;;;;;37.38;30.23;;;12.80;99.90;;;;;;5072584;28;20224;-79
2024/03/02 05:33:39;;;;;;;31.48;28.33;;;12.80;99.90;;;;;;5072816;28;20228;-79
2024/03/02 05:36:06;;;;;;;35.85;32.05;;;12.80;99.90;;;;;;5072511;28;20216;-79
2024/03/02 05:38:33;;;;;;;38.17;33.90;;;12.80;99.90;;;;;;5072836;28;20748;-79
2024/03/02 05:41:02;;;;;;;36.42;30.85;;;12.80;99.90;;;;;;5072401;28;20577;-78
2024/03/02 05:43:30;;;;;;;37.05;32.03;;;12.70;99.90;;;;;;5072871;28;20568;-79
2024/03/02 05:45:57;;;;;;;38.60;32.33;;;12.60;99.90;;;;;;5072805;28;20227;-77
2024/03/02 05:48:24;;;;;;;35.00;31.30;;;12.70;99.90;;;;;;5071837;28;20454;-77
2024/03/02 05:50:51;;;;;;;42.60;36.22;;;12.70;99.90;;;;;;5072715;28;20273;-78
2024/03/02 05:53:18;;;;;;;40.80;35.07;;;12.60;99.90;;;;;;5072042;28;20238;-80
2024/03/02 05:55:45;;;;;;;45.38;36.33;;;12.60;99.90;;;;;;5072192;28;20477;-77
2024/03/02 05:58:25;;;;;;;40.05;32.92;;;12.50;99.90;;;;;;5072430;28;20274;-79
2024/03/02 06:00:54;;;;;;;43.22;35.67;;;12.50;99.90;;;;;;5072589;28;20219;-79
2024/03/02 06:03:22;;;;;;;47.63;37.53;;;12.50;99.90;;;;;;5071964;28;20236;-77
2024/03/02 06:05:49;;;;;;;47.15;37.50;;;12.50;99.90;;;;;;5072496;28;20247;-80
2024/03/02 06:08:16;;;;;;;42.13;36.10;;;12.50;99.90;;;;;;5074528;28;20228;-78
2024/03/02 06:10:43;;;;;;;49.95;38.15;;;12.50;99.90;;;;;;5076348;28;20230;-78
2024/03/02 06:13:10;;;;;;;47.90;39.13;;;12.50;99.90;;;;;;5075869;28;20228;-78
2024/03/02 06:15:37;;;;;;;43.45;37.20;;;12.50;99.90;;;;;;5076294;28;20235;-77
2024/03/02 06:18:07;;;;;;;44.38;36.80;;;12.50;99.90;;;;;;5075503;28;20239;-78
2024/03/02 06:20:35;;;;;;;41.83;36.10;;;12.50;99.90;;;;;;5076193;28;20224;-77
2024/03/02 06:23:02;;;;;;;42.60;36.55;;;12.50;99.90;;;;;;5075619;28;20262;-78
2024/03/02 06:25:29;;;;;;;42.67;36.38;;;12.50;99.90;;;;;;5063945;28;20221;-77
2024/03/02 06:27:56;;;;;;;40.75;33.97;;;12.50;99.90;;;;;;5056097;28;20603;-78
2024/03/02 06:30:23;;;;;;;44.33;34.92;;;12.50;99.90;;;;;;5055327;28;20221;-79
2024/03/02 06:32:50;;;;;;;39.08;34.97;;;12.50;99.90;;;;;;5055552;28;20220;-77
2024/03/02 06:35:20;;;;;;;44.03;36.20;;;12.50;99.90;;;;;;5054156;28;20235;-79
2024/03/02 06:37:47;;;;;;;44.25;36.42;;;12.50;99.90;;;;;;5055439;28;20216;-79
2024/03/02 06:40:17;;;;;;;43.67;35.92;;;12.60;99.90;;;;;;5054823;28;20235;-79
2024/03/02 06:42:44;;;;;;;47.03;38.03;;;12.60;99.90;;;;;;5054970;28;20252;-79
2024/03/02 06:45:11;;;;;;;41.97;34.55;;;12.60;99.90;;;;;;5055121;28;20224;-78
2024/03/02 06:47:38;;;;;;;41.20;34.45;;;12.60;99.90;;;;;;5055368;28;20255;-79
2024/03/02 06:50:09;;;;;;;50.58;36.97;;;12.60;99.90;;;;;;5055521;28;20224;-79
2024/03/02 06:52:38;;;;;;;40.20;33.72;;;12.60;99.90;;;;;;5075112;28;20231;-79
2024/03/02 06:55:06;;;;;;;46.05;38.30;;;12.60;99.90;;;;;;5074849;28;20216;-79
2024/03/02 06:57:33;;;;;;;44.97;34.25;;;12.60;99.90;;;;;;5075269;28;20216;-79
2024/03/02 07:00:00;;;;;;;45.47;36.25;;;12.60;99.90;;;;;;5074905;28;20691;-79
2024/03/02 07:02:27;;;;;;;52.65;38.83;;;12.60;99.90;;;;;;5074775;28;20252;-77
2024/03/02 07:04:55;;;;;;;48.45;37.60;;;12.60;99.90;;;;;;5075348;28;20234;-77
2024/03/02 07:07:21;;;;;;;45.08;35.40;;;12.60;99.90;;;;;;5074688;28;20700;-77
2024/03/02 07:09:50;;;;;;;40.10;33.35;;;12.60;99.90;;;;;;5074250;28;20690;-77
2024/03/02 07:12:17;;;;;;;50.25;38.13;;;12.60;99.90;;;;;;5074613;28;20228;-77
2024/03/02 07:17:39;;;;;;;48.70;40.08;;;12.60;99.90;;;;;;5032577;28;20221;-79
2024/03/02 07:20:08;;;;;;;44.47;34.28;;;12.60;99.90;;;;;;5063010;28;20230;-79
2024/03/02 07:22:37;;;;;;;47.90;36.85;;;12.60;99.90;;;;;;5074576;28;20670;-79
2024/03/02 07:25:07;;;;;;;42.42;34.63;;;12.60;99.90;;;;;;5074669;28;20762;-79
2024/03/02 07:27:35;;;;;;;43.17;36.90;;;12.60;99.90;;;;;;5074435;28;20541;-77
2024/03/02 07:30:02;;;;;;;49.45;39.15;;;12.60;99.90;;;;;;5074791;28;20227;-77
2024/03/02 07:32:29;;;;;;;42.92;36.33;;;12.60;99.90;;;;;;5074471;28;20305;-80
2024/03/02 07:35:01;;;;;;;46.67;39.35;;;12.60;99.90;;;;;;5074803;28;20228;-80
2024/03/02 07:37:29;;;;;;;41.63;34.83;;;12.60;99.90;;;;;;5073378;28;20685;-79
2024/03/02 07:39:56;;;;;;;49.40;40.20;;;12.60;99.90;;;;;;5074486;28;20301;-80
2024/03/02 07:42:24;;;;;;;52.42;39.47;;;12.70;99.90;;;;;;5073015;28;20570;-79
2024/03/02 07:44:53;;;;;;;46.53;39.00;;;12.70;99.90;;;;;;5074388;28;20231;-80
2024/03/02 07:47:20;;;;;;;43.35;35.97;;;12.70;99.90;;;;;;5073511;28;20601;-79
2024/03/02 07:49:47;;;;;;;50.80;36.42;;;12.70;99.90;;;;;;5074086;28;20241;-77
2024/03/02 07:52:15;;;;;;;48.67;39.90;;;12.80;99.90;;;;;;5074485;28;20227;-77
2024/03/02 07:54:42;;;;;;;46.17;38.30;;;12.80;99.90;;;;;;5073912;28;20220;-77
2024/03/02 07:57:12;;;;;;;42.03;36.15;;;12.80;99.90;;;;;;5074251;28;20228;-78
2024/03/02 07:59:41;;;;;;;47.53;38.53;;;12.80;99.90;;;;;;5073927;28;20511;-77
2024/03/02 08:02:08;;;;;;;43.83;39.08;;;12.70;99.90;;;;;;5074073;28;20239;-77
2024/03/02 08:04:35;;;;;;;43.85;37.05;;;12.70;99.90;;;;;;5073563;28;20224;-77
2024/03/02 08:07:02;;;;;;;49.20;36.97;;;12.70;99.90;;;;;;5073989;28;20220;-77
2024/03/02 08:09:32;;;;;;;47.28;37.33;;;12.70;99.90;;;;;;5073340;28;20239;-77
2024/03/02 08:11:59;;;;;;;42.63;35.85;;;12.60;99.90;;;;;;5074243;28;20224;-78
2024/03/02 08:14:26;;;;;;;44.78;34.40;;;12.60;99.90;;;;;;5073393;28;20232;-78
2024/03/02 08:16:54;;;;;;;47.38;36.90;;;12.60;99.90;;;;;;5073987;28;20230;-78
2024/03/02 08:19:24;;;;;;;44.13;36.92;;;12.60;99.90;;;;;;5073180;28;20689;-78
2024/03/02 08:21:51;;;;;;;50.78;38.17;;;12.60;99.90;;;;;;5073508;28;20231;-77
2024/03/02 08:24:18;;;;;;;48.35;37.97;;;12.50;99.90;;;;;;5073615;28;20674;-77
2024/03/02 08:26:45;;;;;;;43.47;35.55;;;12.50;99.90;;;;;;5073263;28;20242;-78
2024/03/02 08:29:13;;;;;;;51.60;38.30;;;12.50;99.90;;;;;;5073728;28;20255;-77
2024/03/02 08:31:39;;;;;;;52.70;40.70;;;12.50;99.90;;;;;;5072760;28;20220;-77
2024/03/02 08:34:08;;;;;;;46.90;36.00;;;12.50;99.90;;;;;;5073241;28;20224;-77
2024/03/02 08:36:36;;;;;;;48.22;35.13;;;12.50;99.90;;;;;;5072982;28;20231;-77
2024/03/02 08:39:03;;;;;;;45.72;38.38;;;12.50;99.90;;;;;;5073595;28;20244;-80
2024/03/02 08:41:30;;;;;;;51.13;39.22;;;12.50;99.90;;;;;;5072526;28;20684;-79
2024/03/02 08:43:57;;;;;;;54.40;40.67;;;12.50;99.90;;;;;;5073593;28;20239;-77
2024/03/02 08:46:24;;;;;;;43.58;35.90;;;12.50;99.90;;;;;;5071903;28;20261;-77
2024/03/02 08:48:51;;;;;;;46.00;38.22;;;12.50;99.90;;;;;;5073269;28;20228;-77
2024/03/02 08:51:19;;;;;;;50.60;38.30;;;12.50;99.90;;;;;;5073458;28;20310;-77
2024/03/02 08:53:46;;;;;;;48.30;35.58;;;12.50;99.90;;;;;;5072957;28;20247;-78
2024/03/02 08:56:16;;;;;;;44.42;36.65;;;12.60;99.90;;;;;;5073722;28;20220;-77
2024/03/02 08:58:44;;;;;;;44.13;37.00;;;12.60;99.90;;;;;;5072964;28;20220;-77
2024/03/02 09:01:11;;;;;;;42.25;36.88;;;12.60;99.90;;;;;;5073667;28;20235;-77
2024/03/02 09:03:38;;;;;;;41.30;33.42;;;12.60;99.90;;;;;;5070576;28;20239;-78
2024/03/02 09:06:19;;;;;;;43.63;34.80;;;12.70;99.90;;;;;;5073334;28;20302;-77
2024/03/02 09:08:48;;;;;;;43.55;33.78;;;12.70;99.90;;;;;;5070572;28;20227;-80
2024/03/02 09:11:15;;;;;;;45.60;34.58;;;12.70;99.90;;;;;;5073237;28;20220;-78
2024/03/02 09:13:42;;;;;;;42.38;33.30;;;12.70;99.90;;;;;;5072727;28;20247;-80
2024/03/02 09:16:11;;;;;;;45.25;35.22;;;12.70;99.90;;;;;;5073014;28;20305;-80
2024/03/02 09:18:38;;;;;;;41.80;34.75;;;12.70;99.90;;;;;;5072421;28;20232;-80
2024/03/02 09:21:06;;;;;;;44.95;36.40;;;12.70;99.90;;;;;;5072720;28;20589;-80
2024/03/02 09:23:33;;;;;;;44.33;34.90;;;12.70;99.90;;;;;;5072172;28;20558;-80
2024/03/02 09:26:03;;;;;;;44.20;33.42;;;12.70;99.90;;;;;;5072669;28;20222;-80
2024/03/02 09:28:30;;;;;;;45.78;35.78;;;12.70;99.90;;;;;;5072480;28;20239;-78
2024/03/02 09:30:57;;;;;;;41.90;35.08;;;12.70;99.90;;;;;;5073158;28;20307;-78
2024/03/02 09:33:24;;;;;;;43.92;33.80;;;12.60;99.90;;;;;;5072694;28;20303;-78
2024/03/02 09:35:51;;;;;;;40.10;32.05;;;12.70;99.90;;;;;;5072204;28;20247;-77
2024/03/02 09:38:18;;;;;;;46.08;35.08;;;12.70;99.90;;;;;;5073069;28;20881;-79
2024/03/02 09:40:46;;;;;;;41.38;35.33;;;12.70;99.90;;;;;;5072237;28;20281;-78
2024/03/02 09:43:15;;;;;;;42.53;33.17;;;12.70;99.90;;;;;;5075027;28;20228;-80
2024/03/02 09:45:42;;;;;;;42.88;33.50;;;12.70;99.90;;;;;;5076097;28;20227;-79
2024/03/02 09:48:09;;;;;;;47.75;35.72;;;12.80;99.90;;;;;;5076516;28;20235;-80
2024/03/02 09:50:40;;;;;;;41.67;35.22;;;12.80;99.90;;;;;;5066507;28;20325;-80
2024/03/02 09:53:09;;;;;;;42.58;33.47;;;12.80;99.90;;;;;;5076650;28;20228;-80
2024/03/02 09:55:43;;;;;;;41.88;34.22;;;12.90;99.90;;;;;;5076433;28;20281;-80
2024/03/02 09:58:13;;;;;;;39.20;32.35;;;13.00;99.90;;;;;;5076890;28;20257;-77
2024/03/02 10:00:41;;;;;;;46.08;35.53;;;13.10;99.90;;;;;;5075292;28;20247;-78
2024/03/02 10:03:13;;;;;;;39.10;34.25;;;13.10;99.90;;;;;;5076166;28;20255;-77
2024/03/02 10:05:40;;;;;;;43.78;32.92;;;13.20;99.90;;;;;;5075817;28;20845;-78
2024/03/02 10:08:07;;;;;;;36.67;30.25;;;13.20;99.90;;;;;;5076563;28;20250;-80
2024/03/02 10:10:39;;;;;;;38.47;32.03;;;13.30;99.90;;;;;;5076112;28;20266;-80
2024/03/02 10:13:17;;;;;;;39.30;31.98;;;13.30;99.90;;;;;;5076352;28;20667;-80
2024/03/02 10:15:46;;;;;;;41.75;31.90;;;13.40;99.90;;;;;;5075719;28;20224;-80
2024/03/02 10:18:28;;;;;;;35.88;29.20;;;13.50;99.90;;;;;;5075688;28;20223;-77
2024/03/02 10:21:15;;;;;;;40.00;30.83;;;13.60;99.90;;;;;;5075415;28;20231;-78
2024/03/02 10:23:42;;;;;;;35.80;28.90;;;13.60;99.90;;;;;;5075532;28;20270;-78
2024/03/02 10:26:18;;;;;;;36.05;31.75;;;13.70;99.90;;;;;;5075929;28;20224;-78
2024/03/02 10:28:48;;;;;;;35.10;29.07;;;13.70;99.90;;;;;;5074549;28;20307;-80
2024/03/02 10:31:16;;;;;;;34.83;28.90;;;13.70;99.90;;;;;;5075844;28;20466;-80
2024/03/02 10:33:43;;;;;;;36.35;29.67;;;13.70;99.90;;;;;;5075347;28;20505;-80
2024/03/02 10:36:11;;;;;;;34.83;29.27;;;13.70;99.90;;;;;;5075877;28;20228;-80
2024/03/02 10:38:38;;;;;;;30.53;26.63;;;13.70;99.90;;;;;;5075649;28;20473;-80
2024/03/02 10:41:05;;;;;;;28.03;25.07;;;13.70;99.90;;;;;;5075570;28;20484;-80
2024/03/02 10:43:33;;;;;;;32.20;27.27;;;13.80;99.90;;;;;;5075532;28;20543;-78
2024/03/02 10:46:01;;;;;;;38.73;27.77;;;13.90;99.90;;;;;;5075448;28;20459;-77
2024/03/02 10:48:30;;;;;;;35.07;27.67;;;13.80;99.90;;;;;;5075336;28;20972;-78
2024/03/02 10:51:01;;;;;;;31.93;26.37;;;13.80;99.90;;;;;;5075082;28;20458;-78
2024/03/02 10:53:28;;;;;;;32.73;24.77;;;13.80;99.90;;;;;;5074445;28;20470;-78
2024/03/02 10:56:02;;;;;;;34.45;29.63;;;13.80;99.90;;;;;;5074570;28;20471;-78
2024/03/02 10:58:34;;;;;;;32.30;28.70;;;13.80;99.90;;;;;;5075498;28;20231;-77
2024/03/02 11:01:04;;;;;;;29.50;25.30;;;13.80;99.90;;;;;;5075344;28;20470;-77
2024/03/02 11:03:37;;;;;;;33.20;25.70;;;13.90;99.90;;;;;;5075348;28;20485;-78
2024/03/02 11:06:07;;;;;;;31.17;27.40;;;13.90;99.90;;;;;;5073704;28;20466;-78
2024/03/02 11:08:35;;;;;;;29.58;26.42;;;14.00;99.90;;;;;;5075042;28;20470;-78
2024/03/02 11:11:08;;;;;;;29.13;26.03;;;14.00;99.90;;;;;;5074733;28;20601;-77
2024/03/02 11:13:36;;;;;;;29.37;26.27;;;14.10;99.90;;;;;;5075102;28;20871;-78
2024/03/02 11:16:07;;;;;;;28.10;25.10;;;14.10;99.90;;;;;;5074615;28;20470;-78
2024/03/02 11:18:36;;;;;;;30.53;25.33;;;14.20;99.90;;;;;;5074695;28;20463;-78
2024/03/02 11:21:04;;;;;;;27.10;24.13;;;14.20;99.90;;;;;;5074012;28;20470;-77
2024/03/02 11:23:35;;;;;;;24.57;21.70;;;14.30;99.90;;;;;;5074843;28;20476;-78
2024/03/02 11:26:19;;;;;;;25.60;22.83;;;14.30;99.90;;;;;;5072939;28;20465;-78
2024/03/02 11:28:46;;;;;;;24.17;21.67;;;14.30;99.90;;;;;;5074478;28;20470;-78
2024/03/02 11:31:13;;;;;;;26.07;23.37;;;14.40;99.90;;;;;;5074784;28;20552;-78
2024/03/02 11:33:42;;;;;;;28.97;20.93;;;14.50;99.90;;;;;;5074433;28;20541;-78
2024/03/02 11:36:10;;;;;;;23.33;19.80;;;14.50;99.90;;;;;;5074102;28;20545;-78
2024/03/02 11:38:37;;;;;;;27.23;22.73;;;14.60;99.90;;;;;;5074311;28;20459;-77
2024/03/02 11:41:11;;;;;;;23.30;19.73;;;14.60;99.90;;;;;;5073618;28;20474;-77
2024/03/02 11:43:40;;;;;;;25.97;22.60;;;14.70;99.90;;;;;;5073978;28;20481;-80
2024/03/02 11:46:08;;;;;;;23.60;21.10;;;14.80;99.90;;;;;;5073396;28;20500;-80
2024/03/02 11:48:37;;;;;;;24.30;21.70;;;14.80;99.90;;;;;;5073956;28;20466;-80
2024/03/02 11:51:06;;;;;;;25.60;22.40;;;14.80;99.90;;;;;;5073975;28;20479;-80
2024/03/02 11:53:36;;;;;;;22.33;18.60;;;14.90;99.90;;;;;;5074433;28;20975;-80
2024/03/02 11:56:05;;;;;;;24.23;20.53;;;14.90;99.90;;;;;;5073806;28;20549;-79
2024/03/02 11:58:33;;;;;;;23.80;20.23;;;14.90;99.90;;;;;;5074542;28;20486;-80
2024/03/02 12:01:00;;;;;;;27.67;22.90;;;14.90;99.90;;;;;;5073893;28;20497;-80
2024/03/02 12:03:28;;;;;;;21.37;19.17;;;14.90;99.90;;;;;;5074197;28;20858;-79
2024/03/02 12:05:56;;;;;;;25.20;20.40;;;14.90;99.90;;;;;;5072558;28;20505;-78
2024/03/02 12:08:24;;;;;;;25.50;22.20;;;15.00;99.90;;;;;;5074319;28;20470;-78
2024/03/02 12:10:58;;;;;;;21.03;18.90;;;15.00;99.90;;;;;;5073207;28;21018;-79
2024/03/02 12:13:25;;;;;;;22.47;19.47;;;15.10;99.90;;;;;;5073996;28;20466;-78
2024/03/02 12:15:59;;;;;;;24.40;20.00;;;15.10;99.90;;;;;;5072862;28;20466;-78
2024/03/02 12:18:26;;;;;;;22.27;19.83;;;15.10;99.90;;;;;;5073823;28;20455;-77
2024/03/02 12:20:57;;;;;;;27.80;21.27;;;15.10;99.90;;;;;;5073315;28;20469;-77
2024/03/02 12:23:25;;;;;;;23.97;20.47;;;15.00;99.90;;;;;;5073799;28;20466;-76
2024/03/02 12:25:53;;;;;;;20.43;18.13;;;15.10;99.90;;;;;;5073309;28;20573;-76
2024/03/02 12:28:22;;;;;;;23.63;19.97;;;15.10;99.90;;;;;;5073468;28;20459;-77
2024/03/02 12:30:50;;;;;;;25.37;20.13;;;15.20;99.90;;;;;;5073726;28;20527;-77
2024/03/02 12:33:29;;;;;;;22.90;19.37;;;15.20;99.90;;;;;;5073066;28;20505;-81
2024/03/02 12:35:58;;;;;;;24.33;18.40;;;15.30;99.90;;;;;;5072869;28;20553;-80
2024/03/02 12:38:29;;;;;;;25.73;20.30;;;15.30;99.90;;;;;;5073464;28;20454;-80
2024/03/02 12:40:57;;;;;;;21.27;18.90;;;15.30;99.90;;;;;;5072601;28;20470;-80
2024/03/02 12:43:24;;;;;;;19.70;17.70;;;15.30;99.90;;;;;;5072854;28;21025;-80